Time;durP1;ratioP1;P1;durP2;ratioP2;P2;SDS_P1;SDS_P2;PMS_P1;PMS_P2;Temp;Humidity;BMP_temperature;BMP_pressure;BME280_temperature;BME280_humidity;BME280_pressure;Samples;Min_cycle;Max_cycle;Signal;HPM_P1;HPM_P2
2023/08/20 00:00:11;;;;;;;21.65;14.90;;;;;;;24.61;nan;100689.22;5021634;28;20086;-71
2023/08/20 00:02:41;;;;;;;16.67;14.45;;;;;;;24.52;nan;100675.75;5038191;28;20018;-73
2023/08/20 00:05:07;;;;;;;18.60;15.30;;;;;;;24.54;nan;100686.19;5022222;28;20025;-71
2023/08/20 00:07:32;;;;;;;21.45;15.27;;;;;;;24.50;nan;100680.66;5023346;28;20014;-73
2023/08/20 00:09:58;;;;;;;24.42;15.65;;;;;;;24.43;nan;100680.28;5021500;28;20033;-72
2023/08/20 00:12:25;;;;;;;19.45;15.88;;;;;;;24.46;nan;100679.69;5022672;28;20718;-71
2023/08/20 00:14:53;;;;;;;20.48;15.43;;;;;;;24.45;nan;100693.44;5023098;28;20082;-70
2023/08/20 00:17:19;;;;;;;19.33;15.45;;;;;;;24.37;nan;100686.91;5022705;28;20510;-73
2023/08/20 00:19:45;;;;;;;22.02;16.33;;;;;;;24.33;nan;100686.75;5023972;28;20682;-71
2023/08/20 00:22:10;;;;;;;17.65;14.52;;;;;;;24.22;nan;100668.47;5022555;28;20069;-72
2023/08/20 00:24:36;;;;;;;19.63;15.30;;;;;;;24.19;nan;100664.50;5021135;28;20044;-72
2023/08/20 00:27:01;;;;;;;20.70;16.33;;;;;;;24.20;nan;100676.84;5035138;28;20025;-71
2023/08/20 00:29:26;;;;;;;19.90;16.20;;;;;;;24.15;nan;100674.31;5022566;28;20187;-71
2023/08/20 00:31:52;;;;;;;21.77;16.67;;;;;;;24.16;nan;100681.28;5018297;28;20038;-72
2023/08/20 00:34:17;;;;;;;24.50;17.60;;;;;;;24.07;nan;100678.53;5019958;28;20029;-72
2023/08/20 00:36:43;;;;;;;26.27;16.92;;;;;;;24.08;nan;100692.78;5018484;28;20030;-71
2023/08/20 00:39:08;;;;;;;21.85;17.88;;;;;;;23.93;nan;100678.63;5020231;28;20672;-66
2023/08/20 00:41:33;;;;;;;21.95;16.63;;;;;;;23.94;nan;100676.72;5018688;28;20364;-67
2023/08/20 00:43:59;;;;;;;19.25;16.77;;;;;;;23.88;nan;100689.50;5021832;28;20061;-67
2023/08/20 00:46:24;;;;;;;22.10;16.77;;;;;;;23.80;nan;100682.19;5021552;28;20014;-66
2023/08/20 00:48:50;;;;;;;21.70;17.40;;;;;;;23.77;nan;100693.53;5020337;28;20048;-67
2023/08/20 00:51:15;;;;;;;24.05;17.17;;;;;;;23.64;nan;100678.25;5033637;28;20036;-67
2023/08/20 00:53:40;;;;;;;25.23;16.58;;;;;;;23.63;nan;100690.09;5019157;28;20029;-66
2023/08/20 00:56:06;;;;;;;22.55;16.27;;;;;;;23.53;nan;100686.53;5037147;28;20561;-66
2023/08/20 00:58:32;;;;;;;23.92;17.17;;;;;;;23.41;nan;100672.06;5018383;28;20028;-66
2023/08/20 01:00:57;;;;;;;19.42;15.82;;;;;;;23.31;nan;100675.78;5018516;28;20155;-68
2023/08/20 01:03:23;;;;;;;21.85;16.17;;;;;;;23.28;nan;100685.25;5020131;28;20474;-68
2023/08/20 01:05:58;;;;;;;18.92;16.48;;;;;;;23.09;nan;100682.72;5019112;28;20495;-68
2023/08/20 01:08:39;;;;;;;20.45;16.15;;;;;;;23.11;nan;100688.56;5019498;28;20033;-68
2023/08/20 01:11:09;;;;;;;22.42;16.92;;;;;;;23.01;nan;100679.94;5018248;28;20053;-67
2023/08/20 01:13:35;;;;;;;23.42;17.60;;;;;;;23.08;nan;100691.88;5018979;28;20108;-65
2023/08/20 01:16:00;;;;;;;23.95;17.48;;;;;;;23.02;nan;100692.28;5020930;28;20108;-66
2023/08/20 01:18:26;;;;;;;20.92;16.75;;;;;;;22.99;nan;100693.69;5019145;28;20373;-66
2023/08/20 01:20:56;;;;;;;20.60;16.85;;;;;;;22.97;nan;100693.16;5017738;28;20029;-68
2023/08/20 01:23:37;;;;;;;19.92;16.92;;;;;;;22.92;nan;100701.31;5019280;28;20025;-68
2023/08/20 01:26:28;;;;;;;22.65;17.80;;;;;;;22.82;nan;100693.44;5021778;28;20049;-68
2023/08/20 01:28:55;;;;;;;24.13;17.83;;;;;;;22.62;nan;100706.19;5022876;28;20550;-68
2023/08/20 01:31:20;;;;;;;23.65;18.05;;;;;;;22.59;nan;100698.75;5025403;28;20036;-69
2023/08/20 01:33:46;;;;;;;21.65;18.30;;;;;;;22.50;nan;100692.47;5024074;28;20817;-67
2023/08/20 01:36:11;;;;;;;23.65;17.25;;;;;;;22.55;nan;100695.06;5023143;28;20029;-68
2023/08/20 01:38:37;;;;;;;21.83;17.50;;;;;;;22.49;nan;100707.00;5027710;28;20111;-68
2023/08/20 01:41:04;;;;;;;24.80;18.90;;;;;;;22.57;nan;100708.97;5025595;28;20033;-67
2023/08/20 01:43:29;;;;;;;21.77;18.42;;;;;;;22.50;nan;100717.41;5021866;28;20026;-67
2023/08/20 01:45:54;;;;;;;22.77;18.35;;;;;;;22.57;nan;100717.03;5027478;28;20030;-68
2023/08/20 01:48:20;;;;;;;23.67;17.83;;;;;;;22.56;nan;100711.97;5026832;28;20021;-68
2023/08/20 01:50:45;;;;;;;25.40;18.42;;;;;;;22.56;nan;100707.41;5023029;28;20054;-67
2023/08/20 01:53:11;;;;;;;24.48;17.80;;;;;;;22.59;nan;100714.84;5022876;28;20052;-68
2023/08/20 01:55:37;;;;;;;24.58;17.75;;;;;;;22.58;nan;100712.44;5024018;28;20030;-68
2023/08/20 01:58:02;;;;;;;24.45;18.75;;;;;;;22.61;nan;100706.50;5020580;28;20029;-69
2023/08/20 02:00:28;;;;;;;21.95;18.30;;;;;;;22.59;nan;100701.41;5021235;28;20534;-69
2023/08/20 02:02:54;;;;;;;22.15;17.67;;;;;;;22.65;nan;100712.84;5024199;28;20500;-69
2023/08/20 02:05:19;;;;;;;23.98;18.20;;;;;;;22.60;nan;100712.94;5021328;28;20407;-69
2023/08/20 02:07:45;;;;;;;21.67;18.58;;;;;;;22.56;nan;100714.66;5026318;28;20037;-69
2023/08/20 02:10:10;;;;;;;20.77;17.13;;;;;;;22.59;nan;100724.78;5023798;28;20029;-68
2023/08/20 02:12:35;;;;;;;23.75;18.08;;;;;;;22.57;nan;100722.38;5025991;28;20029;-69
2023/08/20 02:15:03;;;;;;;21.05;16.70;;;;;;;22.56;nan;100722.72;5021329;28;20034;-69
2023/08/20 02:17:28;;;;;;;18.95;16.75;;;;;;;22.51;nan;100719.03;5023713;28;20071;-69
2023/08/20 02:19:54;;;;;;;22.60;16.65;;;;;;;22.46;nan;100713.75;5022990;28;20025;-69
2023/08/20 02:22:20;;;;;;;20.85;16.17;;;;;;;22.46;nan;100710.28;5039844;28;20029;-69
2023/08/20 02:24:46;;;;;;;22.60;16.67;;;;;;;22.42;nan;100709.28;5025281;28;20030;-69
2023/08/20 02:27:11;;;;;;;21.48;17.13;;;;;;;22.43;nan;100702.81;5023607;28;20024;-68
2023/08/20 02:29:37;;;;;;;21.05;15.75;;;;;;;22.41;nan;100715.72;5021972;28;20403;-69
2023/08/20 02:32:02;;;;;;;21.30;16.90;;;;;;;22.33;nan;100705.69;5023357;28;20100;-69
2023/08/20 02:34:28;;;;;;;20.30;15.85;;;;;;;22.25;nan;100705.28;5023751;28;20384;-69
2023/08/20 02:36:53;;;;;;;17.08;15.27;;;;;;;22.29;nan;100711.66;5024887;28;20408;-69
2023/08/20 02:39:20;;;;;;;19.35;16.15;;;;;;;22.31;nan;100708.66;5025997;28;20032;-69
2023/08/20 02:41:45;;;;;;;20.48;16.52;;;;;;;22.25;nan;100699.91;5024562;28;20040;-69
2023/08/20 02:44:10;;;;;;;21.30;15.75;;;;;;;22.35;nan;100708.88;5023868;28;20025;-69
2023/08/20 02:46:38;;;;;;;17.48;14.88;;;;;;;22.29;nan;100703.59;5023460;28;20061;-69
2023/08/20 02:49:03;;;;;;;18.73;15.95;;;;;;;22.28;nan;100715.41;5024987;28;20033;-69
2023/08/20 02:51:28;;;;;;;17.70;15.77;;;;;;;22.27;nan;100718.41;5023176;28;20033;-69
2023/08/20 02:53:54;;;;;;;23.42;15.25;;;;;;;22.20;nan;100697.31;5025079;28;20676;-69
2023/08/20 02:56:20;;;;;;;17.55;15.63;;;;;;;22.22;nan;100713.09;5024155;28;20091;-68
2023/08/20 02:58:45;;;;;;;17.77;15.95;;;;;;;22.30;nan;100713.22;5021831;28;20045;-69
2023/08/20 03:01:21;;;;;;;20.95;15.77;;;;;;;22.33;nan;100709.16;5021422;28;20029;-69
2023/08/20 03:03:47;;;;;;;19.95;15.48;;;;;;;22.37;nan;100714.72;5022975;28;20033;-69
2023/08/20 03:06:12;;;;;;;18.52;15.30;;;;;;;22.39;nan;100707.19;5018891;28;20364;-69
2023/08/20 03:08:38;;;;;;;21.38;15.63;;;;;;;22.42;nan;100709.28;5025745;28;20049;-69
2023/08/20 03:11:03;;;;;;;22.60;15.98;;;;;;;22.39;nan;100701.81;5022614;28;20075;-69
2023/08/20 03:13:28;;;;;;;19.73;15.85;;;;;;;22.42;nan;100717.31;5022453;28;20052;-68
2023/08/20 03:15:54;;;;;;;20.65;15.15;;;;;;;22.36;nan;100713.91;5020050;28;20018;-69
2023/08/20 03:18:19;;;;;;;18.55;14.65;;;;;;;22.31;nan;100703.28;5025032;28;20029;-68
2023/08/20 03:20:44;;;;;;;18.52;15.13;;;;;;;22.32;nan;100699.53;5019030;28;20121;-68
2023/08/20 03:23:10;;;;;;;18.67;15.18;;;;;;;22.36;nan;100711.22;5023789;28;20416;-70
2023/08/20 03:25:35;;;;;;;21.52;15.07;;;;;;;22.33;nan;100713.72;5025848;28;20025;-70
2023/08/20 03:28:01;;;;;;;19.45;15.05;;;;;;;22.40;nan;100730.25;5023459;28;20048;-70
2023/08/20 03:30:26;;;;;;;20.42;15.05;;;;;;;22.24;nan;100740.44;5023216;28;20056;-69
2023/08/20 03:32:51;;;;;;;20.45;16.13;;;;;;;22.11;nan;100730.44;5022088;28;20395;-68
2023/08/20 03:35:17;;;;;;;19.02;16.05;;;;;;;22.16;nan;100728.47;5024038;28;20057;-69
2023/08/20 03:37:42;;;;;;;17.52;14.63;;;;;;;22.13;nan;100712.19;5021006;28;20083;-69
2023/08/20 03:40:08;;;;;;;19.52;15.20;;;;;;;22.22;nan;100723.81;5024325;28;20026;-68
2023/08/20 03:42:33;;;;;;;18.92;15.45;;;;;;;22.21;nan;100719.56;5020961;28;20475;-69
2023/08/20 03:44:59;;;;;;;19.60;15.30;;;;;;;22.11;nan;100707.09;5021815;28;20745;-69
2023/08/20 03:47:24;;;;;;;17.50;15.60;;;;;;;22.16;nan;100725.00;5021024;28;20018;-68
2023/08/20 03:49:49;;;;;;;18.98;15.82;;;;;;;22.17;nan;100715.84;5017522;28;20535;-67
2023/08/20 03:52:15;;;;;;;19.27;15.85;;;;;;;22.11;nan;100717.03;5020108;28;20088;-68
2023/08/20 03:54:40;;;;;;;20.02;16.30;;;;;;;22.08;nan;100723.78;5023471;28;20025;-68
2023/08/20 03:57:06;;;;;;;21.05;17.05;;;;;;;22.14;nan;100732.53;5021066;28;20029;-69
2023/08/20 03:59:31;;;;;;;22.70;16.25;;;;;;;22.06;nan;100713.34;5022604;28;20029;-68
2023/08/20 04:01:57;;;;;;;20.23;16.90;;;;;;;22.06;nan;100712.56;5022505;28;20130;-68
2023/08/20 04:04:22;;;;;;;19.67;15.68;;;;;;;22.15;nan;100729.56;5024394;28;20033;-67
2023/08/20 04:06:48;;;;;;;23.05;17.40;;;;;;;22.12;nan;100730.13;5018596;28;20025;-68
2023/08/20 04:09:13;;;;;;;19.88;17.25;;;;;;;22.15;nan;100740.28;5020884;28;20030;-68
2023/08/20 04:11:39;;;;;;;25.83;16.42;;;;;;;22.14;nan;100738.69;5020594;28;20057;-67
2023/08/20 04:14:04;;;;;;;21.15;16.67;;;;;;;22.08;nan;100727.25;5021217;28;20086;-65
2023/08/20 04:16:30;;;;;;;21.05;16.15;;;;;;;22.19;nan;100741.28;5021419;28;20388;-68
2023/08/20 04:18:56;;;;;;;19.15;15.65;;;;;;;22.14;nan;100729.84;5022087;28;20052;-67
2023/08/20 04:21:21;;;;;;;20.77;16.25;;;;;;;22.20;nan;100737.56;5021691;28;20108;-67
2023/08/20 04:23:46;;;;;;;25.52;15.55;;;;;;;22.24;nan;100745.78;5021949;28;20112;-67
2023/08/20 04:26:12;;;;;;;23.70;16.15;;;;;;;22.18;nan;100733.53;5025072;28;20017;-67
2023/08/20 04:28:38;;;;;;;22.55;16.02;;;;;;;22.18;nan;100737.03;5018941;28;20041;-66
2023/08/20 04:31:03;;;;;;;22.63;16.45;;;;;;;22.17;nan;100737.31;5022120;28;20072;-68
2023/08/20 04:33:28;;;;;;;21.25;16.45;;;;;;;22.20;nan;100739.41;5023474;28;20048;-67
2023/08/20 04:35:54;;;;;;;20.70;16.13;;;;;;;22.24;nan;100751.97;5019468;28;20745;-66
2023/08/20 04:38:19;;;;;;;21.77;15.82;;;;;;;22.26;nan;100752.44;5019747;28;20025;-67
2023/08/20 04:40:49;;;;;;;20.48;16.02;;;;;;;22.21;nan;100739.13;5022872;28;20033;-67
2023/08/20 04:43:15;;;;;;;22.20;15.95;;;;;;;22.23;nan;100738.84;5018535;28;20078;-67
2023/08/20 04:45:41;;;;;;;22.23;15.73;;;;;;;22.25;nan;100744.72;5022846;28;20025;-67
2023/08/20 04:48:06;;;;;;;20.67;16.45;;;;;;;22.17;nan;100743.47;5019917;28;20021;-68
2023/08/20 04:50:32;;;;;;;21.73;16.02;;;;;;;22.12;nan;100724.78;5021740;28;20033;-66
2023/08/20 04:52:59;;;;;;;19.63;16.30;;;;;;;22.13;nan;100728.28;5021811;28;20521;-66
2023/08/20 04:55:25;;;;;;;20.67;16.23;;;;;;;22.15;nan;100737.63;5023407;28;20033;-66
2023/08/20 04:57:51;;;;;;;18.88;15.13;;;;;;;22.24;nan;100738.56;5032140;28;20095;-66
2023/08/20 05:00:16;;;;;;;20.98;15.25;;;;;;;22.28;nan;100742.22;5019686;28;20029;-66
2023/08/20 05:02:41;;;;;;;19.52;15.13;;;;;;;22.38;nan;100745.84;5017966;28;20044;-66
2023/08/20 05:05:07;;;;;;;20.40;15.27;;;;;;;22.37;nan;100730.84;5018201;28;20108;-66
2023/08/20 05:07:33;;;;;;;20.17;15.45;;;;;;;22.41;nan;100732.63;5014593;28;20025;-67
2023/08/20 05:09:58;;;;;;;19.70;15.55;;;;;;;22.44;nan;100742.75;5014217;28;20165;-67
2023/08/20 05:12:23;;;;;;;19.38;16.40;;;;;;;22.44;nan;100741.97;5015746;28;20606;-67
2023/08/20 05:14:49;;;;;;;19.23;16.30;;;;;;;22.53;nan;100759.00;5018534;28;20071;-66
2023/08/20 05:17:14;;;;;;;22.15;16.00;;;;;;;22.60;nan;100767.44;5016268;28;20383;-65
2023/08/20 05:19:40;;;;;;;22.83;16.63;;;;;;;22.56;nan;100757.59;5019801;28;20555;-66
2023/08/20 05:22:05;;;;;;;19.77;15.88;;;;;;;22.62;nan;100757.19;5016521;28;20032;-68
2023/08/20 05:24:30;;;;;;;25.02;15.57;;;;;;;22.71;nan;100714.34;5020402;28;20439;-65
2023/08/20 05:27:09;;;;;;;16.95;15.25;;;;;;;22.75;nan;100706.47;5017966;28;20594;-68
2023/08/20 05:29:35;;;;;;;17.60;14.98;;;;;;;22.78;nan;100727.38;5016895;28;20037;-68
2023/08/20 05:32:00;;;;;;;18.73;15.90;;;;;;;22.69;nan;100687.78;5018580;28;20044;-68
2023/08/20 05:34:26;;;;;;;19.48;14.85;;;;;;;22.87;nan;100663.84;5019281;28;20151;-67
2023/08/20 05:36:51;;;;;;;21.02;14.90;;;;;;;22.89;nan;100744.88;5021340;28;20033;-67
2023/08/20 05:39:17;;;;;;;20.00;15.18;;;;;;;22.97;nan;100752.25;5018863;28;20172;-68
2023/08/20 05:41:42;;;;;;;18.58;14.80;;;;;;;23.01;nan;100766.69;5021041;28;20025;-67
2023/08/20 05:44:07;;;;;;;18.58;14.77;;;;;;;23.09;nan;100723.00;5019664;28;20025;-68
2023/08/20 05:46:33;;;;;;;20.60;14.32;;;;;;;23.17;nan;100718.00;5021154;28;20530;-65
2023/08/20 05:48:58;;;;;;;21.95;14.10;;;;;;;23.23;nan;100733.72;5020411;28;20025;-66
2023/08/20 05:51:24;;;;;;;21.77;15.10;;;;;;;23.25;nan;100797.91;5020557;28;20411;-64
2023/08/20 05:53:49;;;;;;;22.35;15.85;;;;;;;23.29;nan;100710.22;5021567;28;20032;-65
2023/08/20 05:56:14;;;;;;;19.83;14.38;;;;;;;23.35;nan;100741.28;5019262;28;20395;-65
2023/08/20 05:58:40;;;;;;;22.08;15.35;;;;;;;23.39;nan;100739.53;5019471;28;20217;-66
2023/08/20 06:01:05;;;;;;;19.92;14.98;;;;;;;23.35;nan;100731.31;5022736;28;20036;-67
2023/08/20 06:03:30;;;;;;;18.60;15.05;;;;;;;23.42;nan;100743.56;5018386;28;20600;-68
2023/08/20 06:05:59;;;;;;;18.77;14.35;;;;;;;23.46;nan;100739.94;5020236;28;20617;-68
2023/08/20 06:08:25;;;;;;;18.00;14.43;;;;;;;23.54;nan;100735.75;5020737;28;20128;-67
2023/08/20 06:10:51;;;;;;;16.85;13.68;;;;;;;23.60;nan;100723.75;5035339;28;20589;-67
2023/08/20 06:13:16;;;;;;;17.67;14.48;;;;;;;23.66;nan;100727.94;5036508;28;20078;-68
2023/08/20 06:15:41;;;;;;;21.83;14.55;;;;;;;23.77;nan;100731.97;5026336;28;20022;-69
2023/08/20 06:18:07;;;;;;;21.75;14.43;;;;;;;23.88;nan;100735.22;5025037;28;20144;-68
2023/08/20 06:20:32;;;;;;;18.80;13.85;;;;;;;23.96;nan;100739.06;5023658;28;20083;-69
2023/08/20 06:22:57;;;;;;;22.52;15.20;;;;;;;23.97;nan;100830.25;5020459;28;20052;-68
2023/08/20 06:25:23;;;;;;;22.80;15.82;;;;;;;24.05;nan;100766.84;5019071;28;20044;-69
2023/08/20 06:27:48;;;;;;;21.67;14.70;;;;;;;24.09;nan;100716.69;5040726;28;20458;-68
2023/08/20 06:30:14;;;;;;;19.20;15.40;;;;;;;24.16;nan;100746.66;5021876;28;20041;-68
2023/08/20 06:32:39;;;;;;;17.33;13.50;;;;;;;24.22;nan;100715.00;5024075;28;20028;-68
2023/08/20 06:35:05;;;;;;;15.40;13.35;;;;;;;24.26;nan;100683.69;5022936;28;20022;-68
2023/08/20 06:37:31;;;;;;;19.00;13.77;;;;;;;24.37;nan;100730.78;5023008;28;20364;-68
2023/08/20 06:39:56;;;;;;;15.15;13.60;;;;;;;24.44;nan;100714.16;5021037;28;20025;-68
2023/08/20 06:42:22;;;;;;;15.30;13.23;;;;;;;24.39;nan;100760.06;5035610;28;20029;-69
2023/08/20 06:44:47;;;;;;;19.13;14.00;;;;;;;24.50;nan;100744.47;5024252;28;20025;-69
2023/08/20 06:47:14;;;;;;;15.40;13.57;;;;;;;24.60;nan;100723.44;5020417;28;20683;-69
2023/08/20 06:49:40;;;;;;;15.23;13.68;;;;;;;24.66;nan;100709.84;5018421;28;20494;-70
2023/08/20 06:52:06;;;;;;;16.52;12.90;;;;;;;24.68;nan;100764.19;5023987;28;20036;-71
2023/08/20 06:54:31;;;;;;;16.02;12.98;;;;;;;24.73;nan;100732.50;5019599;28;20026;-69
2023/08/20 06:56:56;;;;;;;17.92;13.18;;;;;;;24.83;nan;100748.41;5023375;28;20033;-69
2023/08/20 06:59:22;;;;;;;16.92;13.45;;;;;;;24.91;nan;100808.00;5020412;28;20049;-69
2023/08/20 07:01:48;;;;;;;15.65;13.90;;;;;;;24.99;nan;100758.75;5023085;28;20044;-70
2023/08/20 07:04:14;;;;;;;14.52;12.70;;;;;;;25.04;nan;100769.38;5038005;28;20064;-69
2023/08/20 07:06:39;;;;;;;15.63;13.15;;;;;;;25.13;nan;100759.41;5024123;28;20017;-67
2023/08/20 07:09:05;;;;;;;18.92;12.85;;;;;;;25.12;nan;100747.06;5020853;28;20395;-67
2023/08/20 07:11:30;;;;;;;18.48;12.60;;;;;;;25.23;nan;100750.25;5024386;28;20547;-67
2023/08/20 07:13:56;;;;;;;17.58;12.65;;;;;;;25.34;nan;100751.53;5024129;28;20026;-67
2023/08/20 07:16:21;;;;;;;17.77;12.20;;;;;;;25.39;nan;100754.09;5024158;28;20025;-66
2023/08/20 07:18:46;;;;;;;15.70;12.57;;;;;;;25.47;nan;100752.50;5021826;28;20455;-67
2023/08/20 07:21:12;;;;;;;17.35;12.40;;;;;;;25.59;nan;100803.09;5020022;28;20045;-66
2023/08/20 07:23:37;;;;;;;14.77;12.68;;;;;;;25.63;nan;100742.81;5022008;28;20021;-67
2023/08/20 07:26:08;;;;;;;13.90;11.77;;;;;;;25.71;nan;100767.41;5018601;28;20369;-67
2023/08/20 07:31:19;;;;;;;16.27;12.77;;;;;;;25.91;nan;100756.00;5021457;28;20048;-66
2023/08/20 07:33:52;;;;;;;16.58;12.75;;;;;;;26.00;nan;100761.38;5022267;28;20571;-66
2023/08/20 07:36:19;;;;;;;14.85;11.52;;;;;;;26.12;nan;100744.53;5021062;28;20026;-66
2023/08/20 07:38:44;;;;;;;15.18;11.75;;;;;;;26.19;nan;100756.41;5021657;28;20079;-67
2023/08/20 07:41:13;;;;;;;13.30;11.88;;;;;;;26.23;nan;100746.56;5022237;28;20033;-67
2023/08/20 07:43:40;;;;;;;17.20;11.68;;;;;;;26.31;nan;100699.06;5034605;28;20083;-66
2023/08/20 07:46:07;;;;;;;15.70;11.77;;;;;;;26.39;nan;100768.44;5022180;28;20044;-66
2023/08/20 07:48:33;;;;;;;13.80;11.18;;;;;;;26.45;nan;100747.44;5025487;28;20026;-66
2023/08/20 07:50:59;;;;;;;17.42;11.57;;;;;;;26.57;nan;100761.09;5020691;28;20084;-65
2023/08/20 07:53:24;;;;;;;15.77;11.82;;;;;;;26.65;nan;100716.25;5039279;28;20486;-66
2023/08/20 07:55:50;;;;;;;15.05;11.70;;;;;;;26.75;nan;100726.69;5021639;28;20037;-64
2023/08/20 07:58:15;;;;;;;14.20;11.73;;;;;;;26.95;nan;100755.66;5022631;28;20423;-66
2023/08/20 08:00:40;;;;;;;15.15;11.43;;;;;;;26.99;nan;100757.72;5020698;28;20056;-67
2023/08/20 08:03:06;;;;;;;13.30;11.48;;;;;;;26.95;nan;100725.16;5025233;28;20014;-66
2023/08/20 08:05:31;;;;;;;16.42;11.60;;;;;;;27.08;nan;100810.63;5019410;28;20025;-66
2023/08/20 08:07:57;;;;;;;15.23;11.55;;;;;;;27.17;nan;100794.34;5022349;28;20014;-67
2023/08/20 08:10:22;;;;;;;14.07;11.88;;;;;;;27.32;nan;100725.38;5029182;28;20391;-67
2023/08/20 08:12:48;;;;;;;17.38;11.48;;;;;;;27.41;nan;100757.78;5022506;28;20483;-70
2023/08/20 08:15:13;;;;;;;14.68;11.77;;;;;;;27.37;nan;100754.97;5021096;28;20033;-70
2023/08/20 08:17:39;;;;;;;13.77;11.43;;;;;;;27.41;nan;100766.69;5020396;28;20072;-70
2023/08/20 08:20:05;;;;;;;13.95;11.48;;;;;;;27.49;nan;100746.13;5021275;28;20025;-70
2023/08/20 08:22:31;;;;;;;12.82;11.05;;;;;;;27.53;nan;100730.78;5023661;28;20037;-70
2023/08/20 08:24:56;;;;;;;13.50;10.90;;;;;;;27.66;nan;100791.97;5021831;28;20491;-69
2023/08/20 08:27:21;;;;;;;14.32;11.07;;;;;;;27.65;nan;100719.22;5019816;28;20104;-68
2023/08/20 08:29:47;;;;;;;13.77;11.18;;;;;;;27.81;nan;100825.75;5037395;28;20057;-69
2023/08/20 08:32:12;;;;;;;14.15;10.57;;;;;;;27.88;nan;100738.63;5017214;28;20033;-68
2023/08/20 08:34:37;;;;;;;15.07;10.50;;;;;;;27.94;nan;100754.34;5019749;28;20059;-67
2023/08/20 08:37:03;;;;;;;13.75;10.52;;;;;;;27.98;nan;100739.00;5018838;28;20033;-67
2023/08/20 08:39:28;;;;;;;13.90;10.23;;;;;;;28.15;nan;100759.66;5022110;28;20025;-67
2023/08/20 08:42:05;;;;;;;14.40;10.25;;;;;;;28.28;nan;100762.41;5021249;28;20037;-66
2023/08/20 08:44:34;;;;;;;13.82;9.73;;;;;;;28.42;nan;100758.28;5026006;28;20106;-67
2023/08/20 08:47:01;;;;;;;;;;;;;;;28.62;nan;100748.47;5018999;28;20074;-67
2023/08/20 08:49:26;;;;;;;13.55;10.18;;;;;;;28.75;nan;100724.09;5019452;28;19917;-67
2023/08/20 08:51:56;;;;;;;15.88;9.60;;;;;;;28.88;nan;100744.63;5021674;28;20030;-71
2023/08/20 08:54:22;;;;;;;14.90;9.63;;;;;;;28.92;nan;100761.78;5022020;28;20025;-67
2023/08/20 08:56:48;;;;;;;17.30;13.43;;;;;;;29.07;nan;100737.84;5017679;28;20029;-66
2023/08/20 08:59:14;;;;;;;16.15;10.35;;;;;;;29.13;nan;100734.56;5020882;28;20376;-67
2023/08/20 09:01:40;;;;;;;11.90;8.80;;;;;;;29.28;nan;100746.59;5019042;28;20029;-66
2023/08/20 09:04:06;;;;;;;12.80;9.10;;;;;;;29.42;nan;100755.16;5018809;28;20048;-67
2023/08/20 09:06:46;;;;;;;11.65;9.35;;;;;;;29.55;nan;100755.16;5018697;28;20476;-67
2023/08/20 09:09:11;;;;;;;27.10;21.70;;;;;;;29.66;nan;100775.22;5018713;28;20137;-66
2023/08/20 09:11:37;;;;;;;14.85;11.27;;;;;;;29.76;nan;100774.75;5022546;28;20036;-65
2023/08/20 09:14:02;;;;;;;11.13;9.88;;;;;;;29.89;nan;100775.50;5018495;28;20034;-67
2023/08/20 09:16:30;;;;;;;15.88;9.52;;;;;;;30.00;nan;100763.00;5022463;28;20021;-66
2023/08/20 09:19:00;;;;;;;13.93;9.50;;;;;;;30.12;nan;100770.25;5023538;28;20034;-67
2023/08/20 09:21:29;;;;;;;14.02;9.63;;;;;;;30.25;nan;100760.13;5023363;28;20025;-66
2023/08/20 09:23:56;;;;;;;11.63;8.18;;;;;;;30.41;nan;100741.13;5029134;28;20380;-64
2023/08/20 09:26:22;;;;;;;14.55;8.25;;;;;;;30.48;nan;100766.56;5037913;28;20060;-68
2023/08/20 09:28:47;;;;;;;12.73;8.13;;;;;;;30.53;nan;100725.53;5020119;28;20073;-67
2023/08/20 09:31:14;;;;;;;11.43;7.93;;;;;;;30.64;nan;100774.69;5021978;28;20033;-67
2023/08/20 09:33:53;;;;;;;10.77;6.78;;;;;;;30.69;nan;100755.38;5020381;28;20037;-66
2023/08/20 09:36:29;;;;;;;9.77;6.95;;;;;;;30.74;nan;100741.56;5020973;28;20091;-65
2023/08/20 09:38:54;;;;;;;8.63;7.43;;;;;;;30.88;nan;100779.16;5019700;28;20025;-64
2023/08/20 09:41:22;;;;;;;11.48;7.72;;;;;;;30.93;nan;100765.28;5020970;28;20476;-66
2023/08/20 09:43:48;;;;;;;13.93;8.17;;;;;;;30.96;nan;100725.75;5023463;28;20025;-65
2023/08/20 09:46:19;;;;;;;10.65;8.10;;;;;;;30.97;nan;100803.47;5020929;28;20033;-66
2023/08/20 09:48:48;;;;;;;11.63;8.15;;;;;;;30.99;nan;100751.44;5023086;28;20064;-66
2023/08/20 09:51:18;;;;;;;12.93;8.73;;;;;;;31.04;nan;100741.06;5026361;28;20078;-66
2023/08/20 09:53:50;;;;;;;10.57;8.00;;;;;;;31.13;nan;100744.38;5023606;28;20037;-68
2023/08/20 09:56:26;;;;;;;11.48;7.93;;;;;;;31.24;nan;100774.50;5025964;28;20075;-70
2023/08/20 09:58:53;;;;;;;11.98;8.13;;;;;;;31.31;nan;100782.03;5025298;28;20029;-68
2023/08/20 10:01:19;;;;;;;12.77;8.43;;;;;;;31.36;nan;100763.47;5024142;28;20040;-68
2023/08/20 10:03:45;;;;;;;9.45;8.55;;;;;;;31.43;nan;100738.38;5026264;28;20045;-67
2023/08/20 10:06:11;;;;;;;10.88;8.13;;;;;;;31.48;nan;100729.16;5025974;28;20025;-67
2023/08/20 10:08:37;;;;;;;13.95;8.50;;;;;;;31.41;nan;100748.84;5028995;28;20026;-68
2023/08/20 10:11:03;;;;;;;11.32;7.90;;;;;;;31.43;nan;100737.59;5024555;28;20407;-68
2023/08/20 10:13:29;;;;;;;11.77;8.27;;;;;;;31.49;nan;100744.34;5027884;28;20021;-67
2023/08/20 10:15:55;;;;;;;8.75;7.88;;;;;;;31.56;nan;100742.53;5029361;28;20601;-67
2023/08/20 10:18:22;;;;;;;9.98;8.68;;;;;;;31.58;nan;100753.06;5028318;28;20538;-68
2023/08/20 10:20:50;;;;;;;9.32;8.32;;;;;;;31.50;nan;100768.47;5026545;28;20033;-67
2023/08/20 10:23:20;;;;;;;13.50;8.55;;;;;;;31.56;nan;100750.72;5025800;28;20021;-68
2023/08/20 10:25:46;;;;;;;11.02;8.68;;;;;;;31.54;nan;100763.88;5025725;28;20033;-68
2023/08/20 10:28:24;;;;;;;10.77;8.32;;;;;;;31.55;nan;100734.72;5027258;28;20095;-67
2023/08/20 10:31:08;;;;;;;14.13;8.98;;;;;;;31.54;nan;100735.88;5027056;28;20025;-67
2023/08/20 10:33:38;;;;;;;9.60;8.60;;;;;;;31.54;nan;100728.50;5026047;28;20534;-67
2023/08/20 10:36:14;;;;;;;11.30;8.73;;;;;;;31.65;nan;100733.34;5016924;28;20044;-68
2023/08/20 10:38:40;;;;;;;11.07;8.55;;;;;;;31.71;nan;100753.72;5025772;28;20018;-67
2023/08/20 10:41:09;;;;;;;10.70;8.65;;;;;;;31.73;nan;100740.53;5026529;28;20025;-68
2023/08/20 10:43:47;;;;;;;10.40;9.30;;;;;;;31.69;nan;100718.66;5024089;28;20824;-67
2023/08/20 10:46:23;;;;;;;10.57;9.57;;;;;;;31.67;nan;100710.06;5026973;28;20030;-67
2023/08/20 10:49:01;;;;;;;12.55;9.00;;;;;;;31.72;nan;100717.16;5028931;28;20037;-67
2023/08/20 10:51:32;;;;;;;11.15;8.80;;;;;;;31.80;nan;100754.28;5025566;28;20031;-68
2023/08/20 10:54:06;;;;;;;12.75;8.82;;;;;;;31.96;nan;100711.38;5026080;28;20044;-69
2023/08/20 10:56:44;;;;;;;10.02;9.02;;;;;;;32.06;nan;100747.34;5026148;28;20199;-69
2023/08/20 10:59:16;;;;;;;9.90;8.90;;;;;;;32.06;nan;100731.81;5026264;28;20036;-67
2023/08/20 11:01:47;;;;;;;11.23;9.23;;;;;;;32.03;nan;100720.84;5027010;28;20042;-68
2023/08/20 11:04:17;;;;;;;9.52;8.40;;;;;;;32.08;nan;100704.19;5026081;28;20057;-68
2023/08/20 11:06:43;;;;;;;14.57;9.00;;;;;;;32.21;nan;100698.19;5027442;28;20013;-67
2023/08/20 11:09:09;;;;;;;10.02;8.80;;;;;;;32.33;nan;100713.56;5024221;28;20079;-68
2023/08/20 11:11:34;;;;;;;14.27;8.88;;;;;;;32.41;nan;100711.72;5026769;28;20025;-69
2023/08/20 11:14:07;;;;;;;14.00;9.43;;;;;;;32.52;nan;100718.16;5026533;28;20125;-69
2023/08/20 11:16:35;;;;;;;10.18;9.18;;;;;;;32.57;nan;100706.16;5022768;28;20037;-67
2023/08/20 11:19:01;;;;;;;13.27;9.10;;;;;;;32.58;nan;100700.31;5023500;28;20025;-69
2023/08/20 11:21:29;;;;;;;11.27;8.98;;;;;;;32.53;nan;100708.03;5022440;28;20079;-69
2023/08/20 11:23:55;;;;;;;10.73;9.45;;;;;;;32.41;nan;100649.81;5026027;28;20069;-68
2023/08/20 11:26:20;;;;;;;11.88;9.52;;;;;;;32.29;nan;100701.81;5026422;28;20033;-67